Saint Bonnet de Bellac- Haute Vienne - France
Donnes mto: jeudi, 09/08/2012
Date Horaire Temp. E. Hum. E. P.atmo. Pluie Vent Direction Direction Ensoleilleme Solaire P. de rose Temp au vent Rafales
09/08/2012 00:00 17,4 C 69 % 1021,0 hPa 0,0 mm 0,7 km/h (0 Bft) E 90 0 min 0 W/m 11,7 C 17,4 C 0,7 km/h (0 Bft)
09/08/2012 00:10 17,3 C 69 % 1021,0 hPa 0,0 mm 0,0 km/h (0 Bft) E 90 0 min 0 W/m 11,6 C 17,3 C 0,0 km/h (0 Bft)
09/08/2012 00:20 17,3 C 69 % 1020,9 hPa 0,0 mm 0,0 km/h (0 Bft) N-NE 22 0 min 0 W/m 11,6 C 17,3 C 0,0 km/h (0 Bft)
09/08/2012 00:30 17,3 C 70 % 1021,0 hPa 0,0 mm 0,0 km/h (0 Bft) N-NE 22 0 min 0 W/m 11,8 C 17,3 C 0,0 km/h (0 Bft)
09/08/2012 00:40 17,4 C 70 % 1020,9 hPa 0,0 mm 0,0 km/h (0 Bft) E 90 0 min 0 W/m 11,9 C 17,4 C 0,0 km/h (0 Bft)
09/08/2012 00:50 17,5 C 70 % 1020,9 hPa 0,0 mm 0,0 km/h (0 Bft) NE 45 0 min 0 W/m 12,0 C 17,5 C 0,0 km/h (0 Bft)
09/08/2012 01:00 17,4 C 70 % 1021,0 hPa 0,0 mm 0,0 km/h (0 Bft) NE 45 0 min 0 W/m 11,9 C 17,4 C 0,0 km/h (0 Bft)
09/08/2012 01:10 17,2 C 70 % 1021,0 hPa 0,0 mm 0,0 km/h (0 Bft) NE 45 0 min 0 W/m 11,7 C 17,2 C 0,0 km/h (0 Bft)
09/08/2012 01:20 16,9 C 71 % 1020,9 hPa 0,0 mm 0,0 km/h (0 Bft) E-NE 67 0 min 0 W/m 11,6 C 16,9 C 0,0 km/h (0 Bft)
09/08/2012 01:30 16,8 C 71 % 1020,9 hPa 0,0 mm 0,0 km/h (0 Bft) E-NE 67 0 min 0 W/m 11,5 C 16,8 C 0,0 km/h (0 Bft)
09/08/2012 01:40 16,6 C 72 % 1020,9 hPa 0,0 mm 0,0 km/h (0 Bft) E-NE 67 0 min 0 W/m 11,5 C 16,6 C 0,0 km/h (0 Bft)
09/08/2012 01:50 16,3 C 72 % 1021,0 hPa 0,0 mm 0,0 km/h (0 Bft) E-NE 67 0 min 0 W/m 11,2 C 16,3 C 0,0 km/h (0 Bft)
09/08/2012 02:00 15,9 C 73 % 1021,0 hPa 0,0 mm 0,0 km/h (0 Bft) E-NE 67 0 min 0 W/m 11,1 C 15,9 C 0,0 km/h (0 Bft)
09/08/2012 02:10 15,6 C 74 % 1020,9 hPa 0,0 mm 0,0 km/h (0 Bft) E-NE 67 0 min 0 W/m 11,0 C 15,6 C 0,0 km/h (0 Bft)
09/08/2012 02:20 15,3 C 74 % 1020,7 hPa 0,0 mm 0,0 km/h (0 Bft) E-NE 67 0 min 0 W/m 10,7 C 15,3 C 0,0 km/h (0 Bft)
09/08/2012 02:30 15,1 C 75 % 1020,7 hPa 0,0 mm 0,0 km/h (0 Bft) E-NE 67 0 min 0 W/m 10,7 C 15,1 C 0,0 km/h (0 Bft)
09/08/2012 02:40 14,8 C 76 % 1020,5 hPa 0,0 mm 0,0 km/h (0 Bft) NE 45 0 min 0 W/m 10,6 C 14,8 C 0,0 km/h (0 Bft)
09/08/2012 02:50 14,7 C 77 % 1020,5 hPa 0,0 mm 0,0 km/h (0 Bft) NE 45 0 min 0 W/m 10,7 C 14,7 C 0,0 km/h (0 Bft)
09/08/2012 03:02 14,6 C 77 % 1020,6 hPa 0,0 mm 0,0 km/h (0 Bft) NE 45 0 min 0 W/m 10,6 C 14,6 C 0,0 km/h (0 Bft)
09/08/2012 03:10 14,5 C 78 % 1020,5 hPa 0,0 mm 0,0 km/h (0 Bft) NE 45 0 min 0 W/m 10,7 C 14,5 C 0,0 km/h (0 Bft)
09/08/2012 03:20 14,3 C 79 % 1020,5 hPa 0,0 mm 0,0 km/h (0 Bft) NE 45 0 min 0 W/m 10,7 C 14,3 C 0,0 km/h (0 Bft)
09/08/2012 03:30 14,1 C 79 % 1020,6 hPa 0,0 mm 0,0 km/h (0 Bft) NE 45 0 min 0 W/m 10,5 C 14,1 C 0,0 km/h (0 Bft)
09/08/2012 03:40 13,9 C 79 % 1020,7 hPa 0,0 mm 0,0 km/h (0 Bft) NE 45 0 min 0 W/m 10,3 C 13,9 C 0,0 km/h (0 Bft)
09/08/2012 03:50 13,6 C 80 % 1020,6 hPa 0,0 mm 0,0 km/h (0 Bft) NE 45 0 min 0 W/m 10,2 C 13,6 C 0,0 km/h (0 Bft)
09/08/2012 04:00 13,4 C 80 % 1020,5 hPa 0,0 mm 0,0 km/h (0 Bft) N-NE 22 0 min 0 W/m 10,0 C 13,4 C 0,0 km/h (0 Bft)
09/08/2012 04:10 13,3 C 81 % 1020,5 hPa 0,0 mm 0,0 km/h (0 Bft) N 360 0 min 0 W/m 10,1 C 13,3 C 0,0 km/h (0 Bft)
09/08/2012 04:20 13,3 C 81 % 1020,5 hPa 0,0 mm 0,0 km/h (0 Bft) N-NE 22 0 min 0 W/m 10,1 C 13,3 C 0,0 km/h (0 Bft)
09/08/2012 04:30 13,2 C 81 % 1020,4 hPa 0,0 mm 0,0 km/h (0 Bft) N 360 0 min 0 W/m 10,0 C 13,2 C 0,0 km/h (0 Bft)
09/08/2012 04:40 13,1 C 82 % 1020,3 hPa 0,0 mm 0,0 km/h (0 Bft) N-NO 337 0 min 0 W/m 10,1 C 13,1 C 0,0 km/h (0 Bft)
09/08/2012 04:50 13,0 C 83 % 1020,3 hPa 0,0 mm 0,0 km/h (0 Bft) N-NO 337 0 min 0 W/m 10,2 C 13,0 C 0,0 km/h (0 Bft)
09/08/2012 05:00 12,8 C 83 % 1020,3 hPa 0,0 mm 0,0 km/h (0 Bft) N 360 0 min 0 W/m 10,0 C 12,8 C 0,0 km/h (0 Bft)
09/08/2012 05:10 12,6 C 83 % 1020,4 hPa 0,0 mm 0,4 km/h (0 Bft) N 360 0 min 0 W/m 9,8 C 12,6 C 3,6 km/h (1 Bft)
09/08/2012 05:20 12,5 C 84 % 1020,5 hPa 0,0 mm 0,0 km/h (0 Bft) N-NO 337 0 min 0 W/m 9,9 C 12,5 C 0,0 km/h (0 Bft)
09/08/2012 05:30 12,3 C 84 % 1020,5 hPa 0,0 mm 0,0 km/h (0 Bft) N-NE 22 0 min 0 W/m 9,7 C 12,3 C 0,0 km/h (0 Bft)
09/08/2012 05:40 12,3 C 84 % 1020,5 hPa 0,0 mm 0,0 km/h (0 Bft) N 360 0 min 0 W/m 9,7 C 12,3 C 0,0 km/h (0 Bft)
09/08/2012 05:50 12,1 C 84 % 1020,5 hPa 0,0 mm 0,0 km/h (0 Bft) N 360 0 min 0 W/m 9,5 C 12,1 C 0,0 km/h (0 Bft)
09/08/2012 06:00 11,9 C 84 % 1020,5 hPa 0,0 mm 0,0 km/h (0 Bft) N 360 0 min 0 W/m 9,3 C 11,9 C 0,0 km/h (0 Bft)
09/08/2012 06:10 11,8 C 84 % 1020,5 hPa 0,0 mm 0,0 km/h (0 Bft) N-NE 22 0 min 0 W/m 9,2 C 11,8 C 0,0 km/h (0 Bft)
09/08/2012 06:20 11,8 C 85 % 1020,6 hPa 0,0 mm 0,0 km/h (0 Bft) N-NE 22 0 min 0 W/m 9,4 C 11,8 C 0,0 km/h (0 Bft)
09/08/2012 06:30 11,6 C 85 % 1020,6 hPa 0,0 mm 0,0 km/h (0 Bft) N 360 0 min 0 W/m 9,2 C 11,6 C 0,0 km/h (0 Bft)
09/08/2012 06:40 11,6 C 85 % 1020,5 hPa 0,0 mm 0,0 km/h (0 Bft) N-NE 22 0 min 0 W/m 9,2 C 11,6 C 0,0 km/h (0 Bft)
09/08/2012 06:50 11,5 C 86 % 1020,5 hPa 0,0 mm 0,0 km/h (0 Bft) N-NE 22 0 min 0 W/m 9,2 C 11,5 C 0,0 km/h (0 Bft)
09/08/2012 07:00 11,5 C 86 % 1020,6 hPa 0,0 mm 0,0 km/h (0 Bft) NE 45 0 min 0 W/m 9,2 C 11,5 C 0,0 km/h (0 Bft)
09/08/2012 07:10 11,5 C 86 % 1020,7 hPa 0,0 mm 0,0 km/h (0 Bft) NE 45 0 min 0 W/m 9,2 C 11,5 C 0,0 km/h (0 Bft)
09/08/2012 07:20 11,4 C 86 % 1020,7 hPa 0,0 mm 0,0 km/h (0 Bft) NE 45 0 min 0 W/m 9,1 C 11,4 C 0,0 km/h (0 Bft)
09/08/2012 07:30 11,6 C 88 % 1020,6 hPa 0,0 mm 0,0 km/h (0 Bft) E-SE 112 0 min 0 W/m 9,7 C 11,6 C 0,0 km/h (0 Bft)
09/08/2012 07:40 11,8 C 88 % 1020,7 hPa 0,0 mm 0,0 km/h (0 Bft) E-NE 67 0 min 0 W/m 9,9 C 11,8 C 2,9 km/h (1 Bft)
09/08/2012 07:50 12,0 C 87 % 1020,8 hPa 0,0 mm 2,2 km/h (1 Bft) E-NE 67 0 min 0 W/m 9,9 C 12,0 C 4,3 km/h (1 Bft)
09/08/2012 08:00 12,2 C 88 % 1020,8 hPa 0,0 mm 0,0 km/h (0 Bft) E-NE 67 0 min 0 W/m 10,3 C 12,2 C 0,0 km/h (0 Bft)
09/08/2012 08:10 12,4 C 88 % 1020,9 hPa 0,0 mm 0,0 km/h (0 Bft) E-NE 67 0 min 0 W/m 10,5 C 12,4 C 0,0 km/h (0 Bft)
09/08/2012 08:20 12,7 C 88 % 1021,0 hPa 0,0 mm 0,4 km/h (0 Bft) E-NE 67 0 min 0 W/m 10,8 C 12,7 C 3,2 km/h (1 Bft)
09/08/2012 08:30 13,1 C 88 % 1021,0 hPa 0,0 mm 0,4 km/h (0 Bft) E-NE 67 0 min 0 W/m 11,2 C 13,1 C 3,2 km/h (1 Bft)
09/08/2012 08:40 13,4 C 88 % 1021,1 hPa 0,0 mm 0,0 km/h (0 Bft) E-NE 67 0 min 0 W/m 11,5 C 13,4 C 0,0 km/h (0 Bft)
09/08/2012 08:50 13,8 C 88 % 1021,2 hPa 0,0 mm 0,0 km/h (0 Bft) E-NE 67 0 min 0 W/m 11,8 C 13,8 C 0,0 km/h (0 Bft)
09/08/2012 09:00 14,3 C 88 % 1021,2 hPa 0,0 mm 0,7 km/h (0 Bft) E-NE 67 0 min 0 W/m 12,3 C 14,3 C 3,6 km/h (1 Bft)
09/08/2012 09:10 14,8 C 88 % 1021,4 hPa 0,0 mm 0,0 km/h (0 Bft) E-NE 67 0 min 0 W/m 12,8 C 14,8 C 0,0 km/h (0 Bft)
09/08/2012 09:20 15,4 C 87 % 1021,3 hPa 0,0 mm 0,4 km/h (0 Bft) E-NE 67 0 min 0 W/m 13,2 C 15,4 C 2,9 km/h (1 Bft)
09/08/2012 09:30 16,3 C 87 % 1021,4 hPa 0,0 mm 0,0 km/h (0 Bft) E-NE 67 0 min 0 W/m 14,1 C 16,3 C 0,0 km/h (0 Bft)
09/08/2012 09:40 17,2 C 86 % 1021,3 hPa 0,0 mm 0,7 km/h (0 Bft) E-NE 67 0 min 0 W/m 14,8 C 17,2 C 0,7 km/h (0 Bft)
09/08/2012 09:50 18,4 C 83 % 1021,3 hPa 0,0 mm 0,7 km/h (0 Bft) NE 45 0 min 0 W/m 15,5 C 18,4 C 4,0 km/h (1 Bft)
09/08/2012 10:00 19,7 C 79 % 1021,4 hPa 0,0 mm 2,2 km/h (1 Bft) NE 45 0 min 0 W/m 16,0 C 19,7 C 4,3 km/h (1 Bft)
09/08/2012 10:10 20,9 C 75 % 1021,5 hPa 0,0 mm 1,1 km/h (1 Bft) E 90 0 min 0 W/m 16,3 C 20,9 C 1,1 km/h (1 Bft)
09/08/2012 10:20 22,4 C 70 % 1021,6 hPa 0,0 mm 9,7 km/h (2 Bft) E 90 0 min 0 W/m 16,7 C 22,4 C 13,7 km/h (3 Bft)
09/08/2012 10:30 23,6 C 63 % 1021,6 hPa 0,0 mm 0,0 km/h (0 Bft) E-NE 67 0 min 0 W/m 16,1 C 23,6 C 0,0 km/h (0 Bft)
09/08/2012 10:40 24,8 C 59 % 1021,5 hPa 0,0 mm 7,9 km/h (2 Bft) N 360 0 min 0 W/m 16,2 C 24,8 C 13,0 km/h (3 Bft)
09/08/2012 10:50 25,8 C 55 % 1021,5 hPa 0,0 mm 5,8 km/h (2 Bft) NE 45 0 min 0 W/m 16,1 C 25,8 C 9,7 km/h (2 Bft)
09/08/2012 11:00 26,6 C 51 % 1021,5 hPa 0,0 mm 6,5 km/h (2 Bft) E-NE 67 0 min 0 W/m 15,6 C 26,6 C 16,2 km/h (3 Bft)
09/08/2012 11:10 27,3 C 49 % 1021,7 hPa 0,0 mm 6,1 km/h (2 Bft) E-NE 67 0 min 0 W/m 15,6 C 27,3 C 7,9 km/h (2 Bft)
09/08/2012 11:20 27,8 C 47 % 1021,7 hPa 0,0 mm 9,4 km/h (2 Bft) N-NE 22 0 min 0 W/m 15,4 C 27,8 C 13,0 km/h (3 Bft)
09/08/2012 11:30 28,2 C 46 % 1021,6 hPa 0,0 mm 8,3 km/h (2 Bft) SE 135 0 min 0 W/m 15,5 C 28,2 C 9,4 km/h (2 Bft)
09/08/2012 11:40 28,6 C 43 % 1021,7 hPa 0,0 mm 7,6 km/h (2 Bft) NE 45 0 min 0 W/m 14,8 C 28,6 C 7,6 km/h (2 Bft)
09/08/2012 11:50 29,0 C 41 % 1021,6 hPa 0,0 mm 13,3 km/h (3 Bft) NE 45 0 min 0 W/m 14,4 C 29,0 C 20,2 km/h (4 Bft)
09/08/2012 12:00 29,3 C 40 % 1021,5 hPa 0,0 mm 3,6 km/h (1 Bft) NE 45 0 min 0 W/m 14,3 C 29,3 C 6,8 km/h (2 Bft)
09/08/2012 12:10 29,5 C 40 % 1021,5 hPa 0,0 mm 5,8 km/h (2 Bft) NE 45 0 min 0 W/m 14,5 C 29,5 C 11,2 km/h (2 Bft)
09/08/2012 12:20 29,8 C 39 % 1021,5 hPa 0,0 mm 6,8 km/h (2 Bft) N-NE 22 0 min 0 W/m 14,3 C 29,8 C 10,8 km/h (2 Bft)
09/08/2012 12:30 30,3 C 39 % 1021,6 hPa 0,0 mm 3,6 km/h (1 Bft) E-NE 67 0 min 0 W/m 14,8 C 30,3 C 6,8 km/h (2 Bft)
09/08/2012 12:40 30,5 C 37 % 1021,6 hPa 0,0 mm 6,5 km/h (2 Bft) E-SE 112 0 min 0 W/m 14,1 C 30,5 C 10,8 km/h (2 Bft)
09/08/2012 12:50 30,4 C 36 % 1021,5 hPa 0,0 mm 7,6 km/h (2 Bft) NE 45 0 min 0 W/m 13,6 C 30,4 C 11,9 km/h (2 Bft)
09/08/2012 13:00 30,8 C 36 % 1021,5 hPa 0,0 mm 7,6 km/h (2 Bft) NE 45 0 min 0 W/m 14,0 C 30,8 C 12,2 km/h (2 Bft)
09/08/2012 13:10 30,8 C 35 % 1021,5 hPa 0,0 mm 4,3 km/h (1 Bft) SE 135 0 min 0 W/m 13,5 C 30,8 C 6,5 km/h (2 Bft)
09/08/2012 13:20 31,2 C 34 % 1021,4 hPa 0,0 mm 7,2 km/h (2 Bft) E-SE 112 0 min 0 W/m 13,4 C 31,2 C 11,2 km/h (2 Bft)
09/08/2012 13:30 31,3 C 34 % 1021,4 hPa 0,0 mm 5,8 km/h (2 Bft) N-NE 22 0 min 0 W/m 13,5 C 31,3 C 12,2 km/h (2 Bft)
09/08/2012 13:40 31,7 C 34 % 1021,3 hPa 0,0 mm 2,2 km/h (1 Bft) NE 45 0 min 0 W/m 13,9 C 31,7 C 3,2 km/h (1 Bft)
09/08/2012 13:50 31,7 C 33 % 1021,3 hPa 0,0 mm 7,6 km/h (2 Bft) E-NE 67 0 min 0 W/m 13,4 C 31,7 C 8,6 km/h (2 Bft)
09/08/2012 14:00 31,5 C 34 % 1021,3 hPa 0,0 mm 3,2 km/h (1 Bft) E-NE 67 0 min 0 W/m 13,7 C 31,5 C 6,5 km/h (2 Bft)
09/08/2012 14:10 31,8 C 34 % 1021,3 hPa 0,0 mm 7,9 km/h (2 Bft) N-NE 22 0 min 0 W/m 14,0 C 31,8 C 11,5 km/h (2 Bft)
09/08/2012 14:20 32,4 C 33 % 1021,2 hPa 0,0 mm 4,7 km/h (1 Bft) E-NE 67 0 min 0 W/m 14,0 C 32,4 C 6,1 km/h (2 Bft)
09/08/2012 14:30 32,4 C 33 % 1021,1 hPa 0,0 mm 2,5 km/h (1 Bft) E-NE 67 0 min 0 W/m 14,0 C 32,4 C 4,3 km/h (1 Bft)
09/08/2012 14:40 32,5 C 32 % 1021,1 hPa 0,0 mm 8,3 km/h (2 Bft) N-NE 22 0 min 0 W/m 13,6 C 32,5 C 15,5 km/h (3 Bft)
09/08/2012 14:50 32,5 C 33 % 1021,2 hPa 0,0 mm 4,7 km/h (1 Bft) NE 45 0 min 0 W/m 14,1 C 32,5 C 7,2 km/h (2 Bft)
09/08/2012 15:00 32,5 C 32 % 1021,2 hPa 0,0 mm 11,2 km/h (2 Bft) NE 45 0 min 0 W/m 13,6 C 32,5 C 16,6 km/h (3 Bft)
09/08/2012 15:10 32,6 C 31 % 1021,2 hPa 0,0 mm 8,6 km/h (2 Bft) N-NE 22 0 min 0 W/m 13,2 C 32,6 C 8,6 km/h (2 Bft)
09/08/2012 15:20 32,7 C 32 % 1021,1 hPa 0,0 mm 6,5 km/h (2 Bft) N-NE 22 0 min 0 W/m 13,8 C 32,7 C 15,8 km/h (3 Bft)
09/08/2012 15:30 32,6 C 32 % 1021,1 hPa 0,0 mm 7,6 km/h (2 Bft) E-NE 67 0 min 0 W/m 13,7 C 32,6 C 11,5 km/h (2 Bft)
09/08/2012 15:40 32,9 C 32 % 1020,9 hPa 0,0 mm 5,8 km/h (2 Bft) SE 135 0 min 0 W/m 14,0 C 32,9 C 5,8 km/h (2 Bft)
09/08/2012 15:50 33,2 C 32 % 1021,0 hPa 0,0 mm 5,8 km/h (2 Bft) E-SE 112 0 min 0 W/m 14,2 C 33,2 C 5,8 km/h (2 Bft)
09/08/2012 16:00 33,3 C 33 % 1020,9 hPa 0,0 mm 8,3 km/h (2 Bft) NE 45 0 min 0 W/m 14,8 C 33,3 C 9,0 km/h (2 Bft)
09/08/2012 16:10 33,5 C 33 % 1020,9 hPa 0,0 mm 7,2 km/h (2 Bft) NE 45 0 min 0 W/m 15,0 C 33,5 C 9,4 km/h (2 Bft)
09/08/2012 16:20 33,3 C 34 % 1020,8 hPa 0,0 mm 6,5 km/h (2 Bft) NE 45 0 min 0 W/m 15,3 C 33,3 C 11,2 km/h (2 Bft)
09/08/2012 16:30 33,4 C 34 % 1020,9 hPa 0,0 mm 4,3 km/h (1 Bft) NE 45 0 min 0 W/m 15,4 C 33,4 C 7,2 km/h (2 Bft)
09/08/2012 16:40 33,3 C 34 % 1020,8 hPa 0,0 mm 9,7 km/h (2 Bft) N-NE 22 0 min 0 W/m 15,3 C 33,3 C 15,5 km/h (3 Bft)
09/08/2012 16:50 33,1 C 34 % 1020,7 hPa 0,0 mm 2,9 km/h (1 Bft) N 360 0 min 0 W/m 15,1 C 33,1 C 7,2 km/h (2 Bft)
09/08/2012 17:00 33,0 C 34 % 1020,8 hPa 0,0 mm 5,8 km/h (2 Bft) E-NE 67 0 min 0 W/m 15,0 C 33,0 C 7,6 km/h (2 Bft)
09/08/2012 17:10 32,9 C 34 % 1020,6 hPa 0,0 mm 5,4 km/h (2 Bft) E-NE 67 0 min 0 W/m 14,9 C 32,9 C 8,6 km/h (2 Bft)
09/08/2012 17:20 32,8 C 34 % 1020,7 hPa 0,0 mm 8,3 km/h (2 Bft) E-NE 67 0 min 0 W/m 14,8 C 32,8 C 10,4 km/h (2 Bft)
09/08/2012 17:30 32,8 C 34 % 1020,6 hPa 0,0 mm 8,6 km/h (2 Bft) N 360 0 min 0 W/m 14,8 C 32,8 C 8,6 km/h (2 Bft)
09/08/2012 17:40 32,8 C 34 % 1020,8 hPa 0,0 mm 6,5 km/h (2 Bft) NE 45 0 min 0 W/m 14,8 C 32,8 C 8,3 km/h (2 Bft)
09/08/2012 17:50 32,8 C 34 % 1020,7 hPa 0,0 mm 7,2 km/h (2 Bft) N 360 0 min 0 W/m 14,8 C 32,8 C 8,3 km/h (2 Bft)
09/08/2012 18:00 32,6 C 35 % 1020,7 hPa 0,0 mm 10,1 km/h (2 Bft) E-NE 67 0 min 0 W/m 15,1 C 32,6 C 11,9 km/h (2 Bft)
09/08/2012 18:10 32,5 C 35 % 1020,6 hPa 0,0 mm 6,5 km/h (2 Bft) N-NE 22 0 min 0 W/m 15,0 C 32,5 C 16,6 km/h (3 Bft)
09/08/2012 18:20 32,4 C 35 % 1020,6 hPa 0,0 mm 3,2 km/h (1 Bft) N-NE 22 0 min 0 W/m 14,9 C 32,4 C 3,2 km/h (1 Bft)
09/08/2012 18:30 32,4 C 35 % 1020,6 hPa 0,0 mm 5,8 km/h (2 Bft) N 360 0 min 0 W/m 14,9 C 32,4 C 10,8 km/h (2 Bft)
09/08/2012 18:40 32,1 C 35 % 1020,5 hPa 0,0 mm 5,0 km/h (1 Bft) N 360 0 min 0 W/m 14,7 C 32,1 C 7,2 km/h (2 Bft)
09/08/2012 18:50 31,8 C 35 % 1020,5 hPa 0,0 mm 6,8 km/h (2 Bft) N-NE 22 0 min 0 W/m 14,4 C 31,8 C 7,9 km/h (2 Bft)
09/08/2012 19:00 31,7 C 36 % 1020,5 hPa 0,0 mm 2,2 km/h (1 Bft) NE 45 0 min 0 W/m 14,8 C 31,7 C 6,5 km/h (2 Bft)
09/08/2012 19:10 31,6 C 36 % 1020,5 hPa 0,0 mm 5,8 km/h (2 Bft) NE 45 0 min 0 W/m 14,7 C 31,6 C 11,2 km/h (2 Bft)
09/08/2012 19:20 31,6 C 36 % 1020,6 hPa 0,0 mm 3,6 km/h (1 Bft) N-NE 22 0 min 0 W/m 14,7 C 31,6 C 4,3 km/h (1 Bft)
09/08/2012 19:30 31,4 C 36 % 1020,6 hPa 0,0 mm 4,3 km/h (1 Bft) NE 45 0 min 0 W/m 14,5 C 31,4 C 4,3 km/h (1 Bft)
09/08/2012 19:40 31,2 C 36 % 1020,6 hPa 0,0 mm 7,9 km/h (2 Bft) N-NE 22 0 min 0 W/m 14,3 C 31,2 C 11,2 km/h (2 Bft)
09/08/2012 19:50 30,9 C 37 % 1020,6 hPa 0,0 mm 0,0 km/h (0 Bft) N-NE 22 0 min 0 W/m 14,5 C 30,9 C 3,2 km/h (1 Bft)
09/08/2012 20:00 30,8 C 37 % 1020,7 hPa 0,0 mm 0,7 km/h (0 Bft) N-NE 22 0 min 0 W/m 14,4 C 30,8 C 3,6 km/h (1 Bft)
09/08/2012 20:10 30,4 C 37 % 1020,8 hPa 0,0 mm 5,0 km/h (1 Bft) N-NE 22 0 min 0 W/m 14,0 C 30,4 C 8,6 km/h (2 Bft)
09/08/2012 20:20 29,8 C 38 % 1020,9 hPa 0,0 mm 0,7 km/h (0 Bft) N-NE 22 0 min 0 W/m 13,9 C 29,8 C 3,6 km/h (1 Bft)
09/08/2012 20:30 28,9 C 39 % 1020,9 hPa 0,0 mm 2,9 km/h (1 Bft) NE 45 0 min 0 W/m 13,5 C 28,9 C 3,2 km/h (1 Bft)
09/08/2012 20:40 28,2 C 41 % 1020,9 hPa 0,0 mm 1,4 km/h (1 Bft) NE 45 0 min 0 W/m 13,7 C 28,2 C 4,3 km/h (1 Bft)
09/08/2012 20:50 27,4 C 42 % 1020,8 hPa 0,0 mm 0,7 km/h (0 Bft) N-NE 22 0 min 0 W/m 13,3 C 27,4 C 4,0 km/h (1 Bft)
09/08/2012 21:00 26,8 C 43 % 1020,9 hPa 0,0 mm 0,7 km/h (0 Bft) N-NE 22 0 min 0 W/m 13,2 C 26,8 C 0,7 km/h (0 Bft)
09/08/2012 21:10 26,1 C 45 % 1021,0 hPa 0,0 mm 3,2 km/h (1 Bft) N-NE 22 0 min 0 W/m 13,2 C 26,1 C 4,3 km/h (1 Bft)
09/08/2012 21:20 25,5 C 46 % 1021,1 hPa 0,0 mm 0,0 km/h (0 Bft) N-NE 22 0 min 0 W/m 13,0 C 25,5 C 0,0 km/h (0 Bft)
09/08/2012 21:30 25,0 C 46 % 1021,2 hPa 0,0 mm 0,0 km/h (0 Bft) N 360 0 min 0 W/m 12,6 C 25,0 C 0,0 km/h (0 Bft)
09/08/2012 21:40 24,4 C 48 % 1021,2 hPa 0,0 mm 0,0 km/h (0 Bft) E-NE 67 0 min 0 W/m 12,7 C 24,4 C 0,0 km/h (0 Bft)
09/08/2012 21:50 23,8 C 49 % 1021,3 hPa 0,0 mm 0,0 km/h (0 Bft) NE 45 0 min 0 W/m 12,4 C 23,8 C 0,0 km/h (0 Bft)
09/08/2012 22:00 23,3 C 50 % 1021,4 hPa 0,0 mm 0,0 km/h (0 Bft) NE 45 0 min 0 W/m 12,3 C 23,3 C 0,0 km/h (0 Bft)
09/08/2012 22:10 22,7 C 51 % 1021,5 hPa 0,0 mm 0,0 km/h (0 Bft) NE 45 0 min 0 W/m 12,0 C 22,7 C 0,0 km/h (0 Bft)
09/08/2012 22:20 22,1 C 53 % 1021,5 hPa 0,0 mm 0,0 km/h (0 Bft) N 360 0 min 0 W/m 12,1 C 22,1 C 0,0 km/h (0 Bft)
09/08/2012 22:30 21,6 C 55 % 1021,4 hPa 0,0 mm 0,0 km/h (0 Bft) NE 45 0 min 0 W/m 12,2 C 21,6 C 0,0 km/h (0 Bft)
_ Min-Heure 07:20 15:10 05:00 - 22:30 - - - - 07:20 07:20 22:30
Minimum _ 11,4 C 31 % 1020,3 hPa - 0,0 km/h (0 Bft) - - - - 9,1 C 11,4 C 0,0 km/h (0 Bft)
_ Max-Heure 16:10 09:10 11:40 22:30 11:50 - - 22:30 22:30 10:20 16:10 11:50
Maximum _ 33,5 C 88 % 1021,7 hPa 0,0 mm 13,3 km/h
NE (3 Bft)
- - 0 min 0 W/m 16,7 C 33,5 C 20,2 km/h
NE (4 Bft)
Moyenne _ 22,9 C 58 % 1021,0 hPa #0,0 mm 2,9 km/h (1 Bft) NE - #0 min. 0 W/m 12,8 C 22,9 C 4,5 km/h (1 Bft)
Saint Bonnet de Bellac- Haute Vienne - France